createdAt,value
2022-12-11T00:00:39.513Z,88.98
2022-12-11T00:03:10.223Z,88.99
2022-12-11T00:05:41.154Z,89.41
2022-12-11T00:08:08.535Z,88.04
2022-12-11T00:19:13.304Z,88.91
2022-12-11T00:21:40.377Z,89.12
2022-12-11T00:24:11.728Z,89.56
2022-12-11T00:26:42.782Z,88.96
2022-12-11T00:29:14.355Z,88.80
2022-12-11T00:31:42.419Z,89.18
2022-12-11T00:34:09.656Z,89.04
2022-12-11T00:36:36.718Z,89.58
2022-12-11T00:39:04.895Z,88.98
2022-12-11T00:41:32.253Z,88.76
2022-12-11T00:43:59.418Z,88.40
2022-12-11T00:46:26.492Z,88.50
2022-12-11T00:48:53.596Z,89.02
2022-12-11T00:51:20.839Z,89.25
2022-12-11T00:53:48.285Z,89.22
2022-12-11T00:56:18.259Z,89.02
2022-12-11T00:58:46.511Z,88.99
2022-12-11T01:01:16.766Z,89.26
2022-12-11T01:03:44.045Z,89.42
2022-12-11T01:06:16.465Z,88.99
2022-12-11T01:08:45.020Z,88.77
2022-12-11T01:11:14.381Z,88.68
2022-12-11T01:13:41.905Z,89.17
2022-12-11T01:16:13.087Z,89.27
2022-12-11T01:18:40.460Z,89.25
2022-12-11T01:21:10.059Z,88.83
2022-12-11T01:23:37.894Z,88.73
2022-12-11T01:26:09.583Z,88.92
2022-12-11T01:28:36.859Z,88.78
2022-12-11T01:31:14.597Z,89.18
2022-12-11T01:33:41.721Z,88.61
2022-12-11T01:36:18.357Z,88.15
2022-12-11T01:38:46.846Z,88.21
2022-12-11T01:41:15.099Z,88.25
2022-12-11T01:43:57.242Z,87.56
2022-12-11T01:46:25.005Z,87.00
2022-12-11T01:48:52.692Z,87.54
2022-12-11T01:51:20.329Z,86.96
2022-12-11T01:53:51.822Z,87.13
2022-12-11T01:56:19.380Z,88.49
2022-12-11T01:58:49.403Z,87.75
2022-12-11T02:01:28.566Z,87.82
2022-12-11T02:03:55.838Z,86.64
2022-12-11T02:06:36.463Z,87.95
2022-12-11T02:09:05.820Z,87.87
2022-12-11T02:11:45.819Z,87.59
2022-12-11T02:14:27.493Z,87.31
2022-12-11T02:17:04.465Z,87.14
2022-12-11T02:19:48.633Z,87.90
2022-12-11T02:22:41.271Z,87.90
2022-12-11T02:25:21.807Z,87.32
2022-12-11T02:27:56.555Z,87.38
2022-12-11T02:30:23.969Z,87.50
2022-12-11T02:32:56.340Z,88.40
2022-12-11T02:35:23.565Z,87.97
2022-12-11T02:37:56.268Z,87.29
2022-12-11T02:40:26.767Z,87.58
2022-12-11T02:42:55.968Z,88.09
2022-12-11T02:45:24.475Z,88.56
2022-12-11T02:47:52.500Z,87.71
2022-12-11T02:50:21.602Z,88.33
2022-12-11T02:52:50.883Z,88.51
2022-12-11T02:55:18.497Z,88.87
2022-12-11T02:57:49.311Z,88.85
2022-12-11T03:00:16.855Z,88.66
2022-12-11T03:02:44.413Z,89.15
2022-12-11T03:05:13.376Z,88.86
2022-12-11T03:07:42.473Z,88.39
2022-12-11T03:10:14.423Z,88.45
2022-12-11T03:12:43.511Z,88.47
2022-12-11T03:15:17.681Z,88.58
2022-12-11T03:17:47.859Z,88.75
2022-12-11T03:20:14.949Z,88.75
2022-12-11T03:22:54.946Z,88.15
2022-12-11T03:25:44.298Z,88.08
2022-12-11T03:28:19.441Z,88.84
2022-12-11T03:30:49.727Z,89.26
2022-12-11T03:33:24.336Z,89.53
2022-12-11T03:35:56.063Z,89.22
2022-12-11T03:38:37.783Z,88.66
2022-12-11T03:41:06.605Z,88.43
2022-12-11T03:43:34.194Z,87.71
2022-12-11T03:46:01.676Z,88.29
2022-12-11T03:48:33.258Z,88.74
2022-12-11T03:51:02.455Z,88.90
2022-12-11T03:53:30.029Z,88.41
2022-12-11T03:55:58.276Z,88.27
2022-12-11T03:58:25.433Z,87.79
2022-12-11T04:00:52.521Z,88.10
2022-12-11T04:03:19.699Z,88.21
2022-12-11T04:05:48.877Z,88.07
2022-12-11T04:08:17.606Z,87.47
2022-12-11T04:10:44.784Z,88.07
2022-12-11T04:13:12.377Z,87.83
2022-12-11T04:15:40.199Z,88.22
2022-12-11T04:18:26.553Z,88.51
2022-12-11T04:21:12.879Z,86.99
2022-12-11T04:23:58.659Z,87.28
2022-12-11T04:26:26.188Z,88.13
2022-12-11T04:28:53.390Z,88.36
2022-12-11T04:31:21.971Z,89.38
2022-12-11T04:33:49.204Z,89.65
2022-12-11T04:36:16.673Z,89.50
2022-12-11T04:38:43.787Z,88.99
2022-12-11T04:41:13.677Z,88.27
2022-12-11T04:43:41.070Z,88.48
2022-12-11T04:46:10.943Z,88.47
2022-12-11T04:48:38.791Z,89.09
2022-12-11T04:51:06.305Z,89.08
2022-12-11T04:53:33.554Z,89.02
2022-12-11T04:56:01.013Z,88.94
2022-12-11T04:58:28.205Z,89.38
2022-12-11T05:00:55.304Z,88.57
2022-12-11T05:03:22.543Z,88.85
2022-12-11T05:05:51.691Z,89.19
2022-12-11T05:08:19.844Z,89.61
2022-12-11T05:11:00.907Z,90.39
2022-12-11T05:13:29.058Z,89.77
2022-12-11T05:15:56.652Z,89.81
2022-12-11T05:18:24.126Z,89.43
2022-12-11T05:20:58.523Z,89.51
2022-12-11T05:23:25.960Z,89.39
2022-12-11T05:25:57.704Z,89.84
2022-12-11T05:28:27.488Z,90.10
2022-12-11T05:31:21.511Z,90.17
2022-12-11T05:33:50.170Z,89.94
2022-12-11T05:36:31.501Z,90.25
2022-12-11T05:38:59.685Z,90.43
2022-12-11T05:41:28.295Z,90.38
2022-12-11T05:43:55.355Z,90.09
2022-12-11T05:46:24.823Z,90.69
2022-12-11T05:48:55.086Z,90.60
2022-12-11T05:51:22.508Z,90.67
2022-12-11T05:53:51.301Z,90.52
2022-12-11T05:56:20.859Z,90.07
2022-12-11T05:58:48.764Z,90.22
2022-12-11T06:01:18.576Z,90.01
2022-12-11T06:03:45.737Z,89.80
2022-12-11T06:06:12.939Z,89.90
2022-12-11T06:08:40.031Z,89.33
2022-12-11T06:11:07.678Z,89.74
2022-12-11T06:13:35.393Z,89.24
2022-12-11T06:16:04.148Z,89.72
2022-12-11T06:18:31.980Z,89.51
2022-12-11T06:20:59.267Z,89.05
2022-12-11T06:23:26.354Z,88.86
2022-12-11T06:25:53.444Z,88.20
2022-12-11T06:28:20.549Z,89.04
2022-12-11T06:30:47.783Z,89.05
2022-12-11T06:33:14.945Z,87.63
2022-12-11T06:35:42.660Z,86.93
2022-12-11T06:55:48.806Z,87.43
2022-12-11T06:58:16.593Z,87.49
2022-12-11T07:00:43.838Z,86.31
2022-12-11T07:03:11.475Z,87.33
2022-12-11T07:05:38.518Z,86.73
2022-12-11T07:08:07.148Z,87.42
2022-12-11T07:10:34.246Z,85.66
2022-12-11T07:13:01.344Z,85.91
2022-12-11T07:15:28.441Z,86.46
2022-12-11T07:17:55.506Z,86.00
2022-12-11T07:20:22.684Z,84.94
2022-12-11T07:22:49.890Z,84.27
2022-12-11T07:25:17.194Z,85.42
2022-12-11T07:27:44.358Z,86.09
2022-12-11T07:30:11.964Z,86.31
2022-12-11T07:32:39.215Z,85.40
2022-12-11T07:35:06.750Z,84.33
2022-12-11T07:37:33.909Z,84.88
2022-12-11T07:40:01.043Z,85.88
2022-12-11T07:42:28.650Z,84.94
2022-12-11T07:44:55.811Z,84.23
2022-12-11T07:47:23.007Z,85.36
2022-12-11T07:49:50.141Z,84.92
2022-12-11T07:52:17.214Z,85.08
2022-12-11T07:54:44.389Z,85.53
2022-12-11T07:57:14.172Z,85.63
2022-12-11T07:59:41.775Z,84.11
2022-12-11T08:02:11.951Z,84.41
2022-12-11T08:04:39.128Z,85.37
2022-12-11T08:07:06.303Z,85.08
2022-12-11T08:09:33.475Z,84.92
2022-12-11T08:12:00.626Z,83.96
2022-12-11T09:56:36.586Z,83.05
2022-12-11T09:59:32.359Z,83.74
2022-12-11T10:02:19.029Z,83.35
2022-12-11T10:04:58.946Z,84.08
2022-12-11T10:07:48.894Z,83.71
2022-12-11T10:10:37.963Z,83.51
2022-12-11T10:13:30.267Z,82.72
2022-12-11T10:16:20.185Z,82.34
2022-12-11T10:18:48.830Z,82.36
2022-12-11T10:21:18.151Z,83.67
2022-12-11T10:23:56.290Z,82.58
2022-12-11T10:26:23.547Z,82.54
2022-12-11T10:28:50.710Z,83.11
2022-12-11T10:31:20.190Z,83.53
2022-12-11T10:33:56.789Z,82.08
2022-12-11T10:36:28.726Z,83.12
2022-12-11T10:38:55.975Z,83.92
2022-12-11T10:41:28.368Z,83.45
2022-12-11T10:43:55.450Z,83.69
2022-12-11T10:46:22.491Z,83.14
2022-12-11T10:48:53.490Z,83.39
2022-12-11T10:51:32.481Z,83.12
2022-12-11T10:54:07.527Z,83.34
2022-12-11T10:56:35.999Z,84.21
2022-12-11T10:59:03.965Z,84.06
2022-12-11T11:01:32.030Z,84.47
2022-12-11T11:04:19.330Z,84.28
2022-12-11T11:06:46.498Z,84.26
2022-12-11T11:09:35.786Z,83.83
2022-12-11T11:12:07.854Z,83.60
2022-12-11T11:14:35.226Z,83.46
2022-12-11T11:17:02.316Z,83.89
2022-12-11T11:19:36.367Z,83.75
2022-12-11T11:22:14.589Z,83.20
2022-12-11T12:40:24.651Z,81.55
2022-12-11T14:26:39.930Z,84.06
2022-12-11T14:46:42.872Z,83.78
2022-12-11T14:49:21.045Z,84.35
2022-12-11T14:51:48.303Z,84.83
2022-12-11T15:46:33.689Z,86.38
2022-12-11T15:57:33.215Z,85.61
2022-12-11T16:08:43.141Z,85.75
2022-12-11T16:15:30.117Z,85.87
2022-12-11T16:35:56.080Z,86.26
2022-12-11T16:38:23.242Z,86.81
2022-12-11T16:58:07.208Z,87.40
2022-12-11T17:31:53.323Z,88.82
2022-12-11T20:17:48.440Z,93.64
2022-12-11T20:20:15.539Z,93.12
2022-12-11T20:44:10.445Z,92.71
2022-12-11T21:12:29.821Z,93.02
2022-12-11T21:19:23.646Z,92.75
2022-12-11T22:22:05.526Z,97.38
